Union Center, SD (57787)

6:22 PM MDT on May 22, 2017 (GMT -0600)
Ellsworth Air Force Base | | Change Station

Elev 3278 ft 44.15 °N, 103.10 °W | Updated 7 minutes ago

Partly Cloudy
Partly Cloudy
48 °F
Feels Like 48 °F
N
15
Wind Variable Wind from NW
Gusts 20 mph

Today
High -- | Low -- °F
--% Chance of Precip.
Yesterday
High -- | Low -- °F
Precip. -- in
Pressure 30.12 in
Visibility 10.0 miles
Clouds Few 300 ft
Scattered Clouds 1900 ft
Scattered Clouds 3000 ft
Mostly Cloudy 5000 ft
Mostly Cloudy 8000 ft
Overcast 10000 ft
Dew Point 43 °F
Humidity 82%
Rainfall 0.04 in
Snow Depth Not available.
5:15 AM 8:19 PM
Waning Crescent, 11% visible
SPECI KRCA 230015Z 32013G17KT 10SM FEW003 SCT019 SCT030 BKN050 BKN080 OVC100 09/06 A3009 RMK AO2A SHRAB58E15 PRESFR SLP198
Pressure 30.12 in
Visibility 10.0 miles
Clouds Few 300 ft
Scattered Clouds 1900 ft
Scattered Clouds 3000 ft
Mostly Cloudy 5000 ft
Mostly Cloudy 8000 ft
Overcast 10000 ft
Dew Point 43 °F
Humidity 82%
Rainfall 0.04 in
Snow Depth Not available.
5:15 AM 8:19 PM
Waning Crescent, 11% visible
SPECI KRCA 230015Z 32013G17KT 10SM FEW003 SCT019 SCT030 BKN050 BKN080 OVC100 09/06 A3009 RMK AO2A SHRAB58E15 PRESFR SLP198

Get Severe Weather Alerts

Thanks for signing up!

Be on the lookout for a verification email in your inbox.

You'll start receiving the daily forecast at 6 AM.

×

10-Day Weather Forecast

Almanac

Astronomy

May. 22, 2017 Rise Set
Actual Time
Civil Twilight
Nautical Twilight
Astronomical Twilight
Moon
Length of Visible Light
Length of Day
Tomorrow will be .
, % of the Moon is Illuminated

Today's Extremes

State Highs State Lows

Community

WunderPhotos

Category 6

Welcome to Category 6. This is the collective home for Weather Underground's featured writeups by Dr. Jeff Masters (right), Bob Henson (left), Chris Burt, and other regular contributors.

Nearby

Air Quality

  Air Quality AQ Index Pollutant
Not available.

Snow Depth

Station Depth Elevation

Earthquake Activity

City Distance Mag. Time & Date
Minimum magnitude displayed is 2.5.

Coastal Water Temperatures

Place Temperature

Stations

Nearby Weather Stations

Station Location Temp. Windchill Dew Point Humidity Wind Precip. Elev Updated Type
                   

Watches & Warnings

There are currently no watches in effect.